Weather History for KHHW - August, 2013

Change the Weather History Date:

Wednesday, August 7, 2013

  Actual Average Record
Temperature  
Mean Temperature 93 °F -  
Max Temperature 104 °F 94 °F 104 °F (2013)
Min Temperature 83 °F 69 °F 77 °F (2014)
Cooling Degree Days 28    
Growing Degree Days 43 (Base 50)    
Moisture  
Dew Point 73 °F    
Average Humidity 54    
Maximum Humidity 73    
Minimum Humidity 35    
Precipitation  
Precipitation 0.00 in - - ()
Sea Level Pressure  
Sea Level Pressure 29.85 in    
Wind  
Wind Speed 5 mph (South)    
Max Wind Speed 10 mph    
Max Gust Speed -    
Visibility 10 miles    
Events      
Averages and records for this station are not official NWS values.
T = Trace of Precipitation, MM = Missing Value Source: NWS Daily Summary

Daily Weather History Graph

Daily Weather History Graph

Search for Another Location

Airport or City:

Trip Planner

Search our weather history database for the weather conditions in past years. The results will help you decide how hot, cold, wet, or windy it might be!

Date:

Astronomy

Aug. 07, 2013 Rise Set
Actual Time 6:38 AM CDT 8:17 PM CDT
Civil Twilight 6:11 AM CDT 8:44 PM CDT
Nautical Twilight 5:38 AM CDT 9:16 PM CDT
Astronomical Twilight 5:04 AM CDT 9:50 PM CDT
Moon 7:22 AM CDT (8/7) 8:31 PM CDT (8/7)
Length of Visible Light 14h 32m
Length of Day
13h 39m
New Moon, 1% of the Moon is Illuminated
Aug 7
New Moon
Aug 14
First Quarter
Aug 20
Full
Aug 28
Last Quarter
Sep 5
New

Hourly Weather History & Observations

Time (CDT) Temp. Heat Index Dew Point Humidity Pressure Visibility Wind Dir Wind Speed Gust Speed Precip Events Conditions
12:15 AM 88.7 °F 95.2 °F 71.8 °F 57% 29.85 in 10.0 mi South 4.6 mph - N/A   Clear
12:35 AM 87.8 °F 94.3 °F 71.8 °F 59% 29.85 in 10.0 mi South 4.6 mph - N/A   Clear
12:55 AM 87.4 °F 94.0 °F 71.8 °F 60% 29.85 in 10.0 mi South 3.5 mph - N/A   Clear
1:15 AM 86.9 °F 92.9 °F 71.6 °F 60% 29.85 in 10.0 mi South 4.6 mph - N/A   Clear
1:35 AM 86.9 °F 92.9 °F 71.6 °F 60% 29.85 in 10.0 mi South 4.6 mph - N/A   Clear
1:55 AM 86.9 °F 92.5 °F 71.2 °F 59% 29.85 in 10.0 mi SSE 4.6 mph - N/A   Clear
2:15 AM 86.9 °F 92.9 °F 71.4 °F 60% 29.85 in 10.0 mi SSE 4.6 mph - N/A   Clear
2:35 AM 86.5 °F 92.1 °F 71.2 °F 60% 29.85 in 10.0 mi South 4.6 mph - N/A   Clear
2:55 AM 86.5 °F 92.5 °F 71.6 °F 61% 29.85 in 10.0 mi South 3.5 mph - N/A   Clear
3:15 AM 86.5 °F 92.1 °F 71.2 °F 60% 29.84 in 10.0 mi South 4.6 mph - N/A   Clear
3:35 AM 87.3 °F 93.6 °F 71.6 °F 60% 29.84 in 10.0 mi SSW 5.8 mph - N/A   Clear
3:55 AM 87.3 °F 93.6 °F 71.6 °F 60% 29.83 in 10.0 mi SSW 6.9 mph - N/A   Clear
4:15 AM 86.7 °F 92.9 °F 71.6 °F 61% 29.84 in 10.0 mi SSW 4.6 mph - N/A   Clear
4:35 AM 86.0 °F 91.8 °F 71.8 °F 62% 29.84 in 10.0 mi SSW 5.8 mph - N/A   Clear
4:55 AM 85.3 °F 91.1 °F 71.8 °F 64% 29.84 in 10.0 mi SSW 4.6 mph - N/A   Clear
5:15 AM 85.1 °F 91.1 °F 72.0 °F 65% 29.84 in 10.0 mi South 3.5 mph - N/A   Clear
5:35 AM 84.4 °F 90.0 °F 71.8 °F 66% 29.85 in 10.0 mi SSW 3.5 mph - N/A   Clear
5:55 AM 83.8 °F 89.2 °F 71.8 °F 67% 29.85 in 10.0 mi SSW 5.8 mph - N/A   Clear
6:15 AM 83.8 °F 88.9 °F 71.6 °F 66% 29.85 in 10.0 mi SSW 5.8 mph - N/A   Clear
6:35 AM 83.8 °F 88.9 °F 71.6 °F 66% 29.85 in 10.0 mi South 5.8 mph - N/A   Clear
6:55 AM 83.5 °F 88.5 °F 71.6 °F 67% 29.86 in 10.0 mi SSW 4.6 mph - N/A   Clear
7:15 AM 83.8 °F 89.2 °F 71.8 °F 67% 29.86 in 10.0 mi South 3.5 mph - N/A   Clear
7:35 AM 84.2 °F 89.9 °F 72.3 °F 67% 29.87 in 10.0 mi Calm Calm - N/A   Clear
7:55 AM 84.9 °F 91.4 °F 72.7 °F 67% 29.87 in 10.0 mi SSW 4.6 mph - N/A   Clear
8:15 AM 85.6 °F 92.6 °F 73.2 °F 66% 29.88 in 10.0 mi SSW 4.6 mph - N/A   Clear
8:35 AM 86.5 °F 94.2 °F 73.4 °F 65% 29.88 in 10.0 mi South 4.6 mph - N/A   Clear
8:55 AM 87.3 °F 95.3 °F 73.6 °F 64% 29.89 in 10.0 mi South 4.6 mph - N/A   Clear
9:15 AM 88.0 °F 96.0 °F 73.6 °F 62% 29.90 in 10.0 mi SSW 6.9 mph - N/A   Clear
9:35 AM 88.7 °F 96.7 °F 73.4 °F 60% 29.90 in 10.0 mi South 5.8 mph - N/A   Clear
9:55 AM 90.3 °F 98.7 °F 73.2 °F 57% 29.91 in 10.0 mi SSW 8.1 mph - N/A   Clear
10:15 AM 91.0 °F 99.8 °F 73.4 °F 56% 29.91 in 10.0 mi SSW 5.8 mph - N/A   Clear
10:35 AM 92.3 °F 101.5 °F 73.4 °F 54% 29.91 in 10.0 mi SSW 5.8 mph - N/A   Clear
10:55 AM 93.4 °F 102.1 °F 72.7 °F 51% 29.91 in 10.0 mi South 4.6 mph - N/A   Clear
11:15 AM 94.3 °F 104.2 °F 73.6 °F 51% 29.90 in 10.0 mi SSE 6.9 mph - N/A   Clear
11:35 AM 95.4 °F 105.4 °F 73.2 °F 49% 29.90 in 10.0 mi SSE 8.1 mph - N/A   Clear
11:55 AM 96.6 °F 106.1 °F 72.5 °F 46% 29.89 in 10.0 mi South 4.6 mph - N/A   Clear
12:15 PM 97.0 °F 106.2 °F 72.7 °F 45% 29.89 in 10.0 mi South 6.9 mph - N/A   Clear
12:35 PM 98.2 °F 108.4 °F 72.9 °F 44% 29.88 in 10.0 mi SSW 4.6 mph - N/A   Clear
12:55 PM 98.8 °F 108.9 °F 73.0 °F 43% 29.87 in 10.0 mi South 9.2 mph - N/A   Clear
1:15 PM 99.5 °F 109.7 °F 72.5 °F 42% 29.87 in 10.0 mi South 8.1 mph - N/A   Clear
1:35 PM 100.4 °F 111.0 °F 72.9 °F 41% 29.86 in 10.0 mi South 10.4 mph - N/A   Clear
1:55 PM 100.9 °F 111.4 °F 72.9 °F 40% 29.85 in 10.0 mi South 8.1 mph - N/A   Clear
2:15 PM 101.7 °F 113.1 °F 73.4 °F 40% 29.85 in - SSE 8.1 mph - N/A   Clear
2:35 PM 102.0 °F 113.0 °F 72.9 °F 39% 29.85 in 10.0 mi South 9.2 mph - N/A   Clear
2:55 PM 102.4 °F 113.0 °F 72.1 °F 38% 29.83 in 10.0 mi SSE 9.2 mph - N/A   Clear
3:15 PM 102.9 °F 113.3 °F 72.0 °F 37% 29.83 in 10.0 mi SSW 6.9 mph - N/A   Clear
3:35 PM 102.9 °F 113.3 °F 72.0 °F 37% 29.83 in 10.0 mi South 6.9 mph - N/A   Clear
3:55 PM 103.5 °F 114.6 °F 72.9 °F 37% 29.83 in - South 5.8 mph - N/A   Clear
4:15 PM 103.1 °F 112.8 °F 71.4 °F 36% 29.83 in 10.0 mi SSW 4.6 mph - N/A   Clear
4:35 PM 103.5 °F 114.6 °F 72.1 °F 37% 29.82 in 10.0 mi South 5.8 mph - N/A   Clear
4:55 PM 103.6 °F 114.1 °F 71.8 °F 36% 29.81 in 10.0 mi South 6.9 mph - N/A   Clear
5:15 PM 103.5 °F 113.7 °F 71.8 °F 36% 29.81 in 10.0 mi South 6.9 mph - N/A   Clear
5:35 PM 103.6 °F 113.1 °F 71.2 °F 35% 29.81 in 10.0 mi SSE 4.6 mph - N/A   Clear
5:55 PM 103.5 °F 113.7 °F 72.0 °F 36% 29.80 in 10.0 mi SSE 6.9 mph - N/A   Clear
6:15 PM 102.7 °F 113.8 °F 73.0 °F 38% 29.80 in 10.0 mi SSE 5.8 mph - N/A   Clear
6:35 PM 102.2 °F 113.5 °F 72.9 °F 39% 29.79 in 10.0 mi SE 5.8 mph - N/A   Clear
6:55 PM 101.3 °F 112.2 °F 73.2 °F 40% 29.79 in 10.0 mi SSE 5.8 mph - N/A   Clear
7:15 PM 100.0 °F 111.8 °F 73.6 °F 43% 29.79 in 10.0 mi SE 3.5 mph - N/A   Clear
7:35 PM 99.1 °F 108.9 °F 72.7 °F 42% 29.79 in 10.0 mi SSE 4.6 mph - N/A   Clear
7:55 PM 97.7 °F 107.9 °F 73.2 °F 45% 29.79 in 10.0 mi SE 4.6 mph - N/A   Clear
8:15 PM 95.7 °F 106.9 °F 74.1 °F 50% 29.79 in 10.0 mi ESE 5.8 mph - N/A   Clear
8:35 PM 94.6 °F 107.2 °F 75.9 °F 54% 29.80 in 10.0 mi ESE 5.8 mph - N/A   Clear
8:55 PM 92.5 °F 108.9 °F 78.8 °F 64% 29.81 in 10.0 mi East 6.9 mph - N/A   Clear
9:15 PM 91.8 °F 109.1 °F 79.3 °F 67% 29.81 in 10.0 mi ESE 5.8 mph - N/A   Clear
9:35 PM 91.4 °F 108.0 °F 79.2 °F 67% 29.82 in 10.0 mi ESE 6.9 mph - N/A   Clear
9:55 PM 91.2 °F 107.4 °F 79.0 °F 67% 29.82 in 10.0 mi ESE 6.9 mph - N/A   Clear
10:15 PM 90.9 °F 107.1 °F 78.8 °F 68% 29.83 in 10.0 mi East 5.8 mph - N/A   Clear
10:35 PM 90.1 °F 105.7 °F 78.8 °F 69% 29.83 in 10.0 mi ESE 8.1 mph - N/A   Clear
10:55 PM 89.8 °F 105.3 °F 78.8 °F 70% 29.84 in 10.0 mi East 6.9 mph - N/A   Clear
11:15 PM 89.1 °F 103.8 °F 78.6 °F 71% 29.85 in 10.0 mi East 6.9 mph - N/A   Clear
11:35 PM 88.2 °F 102.4 °F 78.4 °F 73% 29.85 in 10.0 mi ESE 6.9 mph - N/A   Clear
11:55 PM 88.2 °F 101.8 °F 78.3 °F 72% 29.85 in 10.0 mi ESE 6.9 mph - N/A   Clear